Time;durP1;ratioP1;P1;durP2;ratioP2;P2;SDS_P1;SDS_P2;PMS_P1;PMS_P2;Temp;Humidity;BMP_temperature;BMP_pressure;BME280_temperature;BME280_humidity;BME280_pressure;Samples;Min_cycle;Max_cycle;Signal;HPM_P1;HPM_P2
2023/09/30 00:04:13;;;;;;;25.40;8.00;;;;;;;;;;10528226;28;20461;-73
2023/09/30 00:09:17;;;;;;;25.37;7.90;;;;;;;;;;10527106;28;20555;-71
2023/09/30 00:14:20;;;;;;;26.43;8.30;;;;;;;;;;10525248;28;20552;-72
2023/09/30 00:19:23;;;;;;;24.45;8.00;;;;;;;;;;10519796;28;20471;-70
2023/09/30 00:24:27;;;;;;;29.08;8.45;;;;;;;;;;10516194;28;20785;-70
2023/09/30 00:29:30;;;;;;;28.52;8.77;;;;;;;;;;10524749;28;20455;-71
2023/09/30 00:34:33;;;;;;;25.60;7.95;;;;;;;;;;10524350;28;20460;-72
2023/09/30 00:39:37;;;;;;;26.05;7.90;;;;;;;;;;10525462;28;20603;-71
2023/09/30 00:44:40;;;;;;;26.50;7.50;;;;;;;;;;10525963;28;20997;-74
2023/09/30 00:49:43;;;;;;;28.63;7.93;;;;;;;;;;10526794;28;20425;-71
2023/09/30 00:54:48;;;;;;;26.30;7.47;;;;;;;;;;10527797;28;20456;-72
2023/09/30 00:59:51;;;;;;;25.80;8.63;;;;;;;;;;10527118;28;20484;-72
2023/09/30 01:04:53;;;;;;;27.60;7.97;;;;;;;;;;10524221;28;20482;-72
2023/09/30 01:09:57;;;;;;;28.25;8.60;;;;;;;;;;10521492;28;20514;-72
2023/09/30 01:15:06;;;;;;;28.35;9.07;;;;;;;;;;10520227;28;20552;-72
2023/09/30 01:20:11;;;;;;;26.52;8.13;;;;;;;;;;10521909;28;20480;-73
2023/09/30 01:25:15;;;;;;;31.90;9.23;;;;;;;;;;10521995;28;20469;-72
2023/09/30 01:30:18;;;;;;;31.27;9.23;;;;;;;;;;10520262;28;20486;-71
2023/09/30 01:35:21;;;;;;;29.10;8.48;;;;;;;;;;10517998;28;20971;-71
2023/09/30 01:40:26;;;;;;;28.20;8.85;;;;;;;;;;10518589;28;20416;-71
2023/09/30 01:45:28;;;;;;;28.75;9.18;;;;;;;;;;10520366;28;21046;-72
2023/09/30 01:50:31;;;;;;;31.47;9.00;;;;;;;;;;10524367;28;20535;-73
2023/09/30 01:55:35;;;;;;;28.15;8.70;;;;;;;;;;10526556;28;20432;-72
2023/09/30 02:00:42;;;;;;;28.27;9.25;;;;;;;;;;10525573;28;20932;-71
2023/09/30 02:05:45;;;;;;;27.73;9.05;;;;;;;;;;10517971;28;20461;-72
2023/09/30 02:10:51;;;;;;;26.48;8.73;;;;;;;;;;10519671;28;20446;-72
2023/09/30 02:15:55;;;;;;;30.00;8.90;;;;;;;;;;10525605;28;20463;-71
2023/09/30 02:20:59;;;;;;;29.05;8.88;;;;;;;;;;10529870;28;20450;-73
2023/09/30 02:26:03;;;;;;;27.50;9.25;;;;;;;;;;10532885;28;20424;-72
2023/09/30 02:31:07;;;;;;;30.08;9.80;;;;;;;;;;10531384;28;20447;-70
2023/09/30 02:36:09;;;;;;;26.80;8.70;;;;;;;;;;10528647;28;20828;-70
2023/09/30 02:41:13;;;;;;;26.38;8.43;;;;;;;;;;10525986;28;20460;-72
2023/09/30 02:46:16;;;;;;;30.92;9.13;;;;;;;;;;10531827;28;20989;-70
2023/09/30 02:51:19;;;;;;;28.77;9.73;;;;;;;;;;10526283;28;20976;-71
2023/09/30 02:56:26;;;;;;;31.67;9.68;;;;;;;;;;10529720;28;20431;-76
2023/09/30 03:01:30;;;;;;;31.15;9.38;;;;;;;;;;10527401;28;20449;-71
2023/09/30 03:06:33;;;;;;;30.27;9.43;;;;;;;;;;10523638;28;20551;-71
2023/09/30 03:11:39;;;;;;;29.17;9.75;;;;;;;;;;10527042;28;20494;-72
2023/09/30 03:16:43;;;;;;;29.25;9.70;;;;;;;;;;10522479;28;20477;-71
2023/09/30 03:21:46;;;;;;;27.88;9.20;;;;;;;;;;10521487;28;20541;-72
2023/09/30 03:26:50;;;;;;;29.33;8.88;;;;;;;;;;10527217;28;20425;-72
2023/09/30 03:31:53;;;;;;;25.20;8.45;;;;;;;;;;10527861;28;20524;-74
2023/09/30 03:36:58;;;;;;;26.33;8.20;;;;;;;;;;10521845;28;20623;-75
2023/09/30 03:42:04;;;;;;;26.80;8.18;;;;;;;;;;10518385;28;21054;-71
2023/09/30 03:47:08;;;;;;;25.80;7.97;;;;;;;;;;10521808;28;20449;-72
2023/09/30 03:52:11;;;;;;;28.50;8.40;;;;;;;;;;10523862;28;20459;-70
2023/09/30 03:57:19;;;;;;;28.63;8.32;;;;;;;;;;10523196;28;20814;-69
2023/09/30 04:02:21;;;;;;;29.45;7.93;;;;;;;;;;10525786;28;20449;-71
2023/09/30 04:07:27;;;;;;;25.05;7.80;;;;;;;;;;10527308;28;20537;-70
2023/09/30 04:12:32;;;;;;;28.50;8.23;;;;;;;;;;10518036;28;20548;-71
2023/09/30 04:17:38;;;;;;;26.90;8.45;;;;;;;;;;10522423;28;21049;-71
2023/09/30 04:22:41;;;;;;;25.13;8.25;;;;;;;;;;10521805;28;20964;-72
2023/09/30 04:27:47;;;;;;;22.70;7.90;;;;;;;;;;10500830;28;20471;-71
2023/09/30 04:32:51;;;;;;;24.80;8.47;;;;;;;;;;10521402;28;21076;-71
2023/09/30 04:37:53;;;;;;;27.35;9.00;;;;;;;;;;10518404;28;20634;-71
2023/09/30 04:42:58;;;;;;;26.37;8.10;;;;;;;;;;10525677;28;20480;-72
2023/09/30 04:48:02;;;;;;;25.87;8.67;;;;;;;;;;10519393;28;20457;-69
2023/09/30 04:53:05;;;;;;;27.67;8.57;;;;;;;;;;10520506;28;20533;-72
2023/09/30 04:58:09;;;;;;;26.23;8.40;;;;;;;;;;10506516;28;20495;-72
2023/09/30 05:03:11;;;;;;;28.60;8.80;;;;;;;;;;10521503;28;20553;-71
2023/09/30 05:08:15;;;;;;;29.60;8.53;;;;;;;;;;10520630;28;20516;-72
2023/09/30 05:13:19;;;;;;;24.33;8.02;;;;;;;;;;10523095;28;21205;-73
2023/09/30 05:18:23;;;;;;;26.48;8.15;;;;;;;;;;10522594;28;20461;-75
2023/09/30 05:23:30;;;;;;;25.97;7.93;;;;;;;;;;10521973;28;20485;-73
2023/09/30 05:28:34;;;;;;;25.50;7.90;;;;;;;;;;10526041;28;20433;-72
2023/09/30 05:33:37;;;;;;;23.27;7.18;;;;;;;;;;10524260;28;20495;-71
2023/09/30 05:38:40;;;;;;;24.02;7.25;;;;;;;;;;10517603;28;20463;-72
2023/09/30 05:43:44;;;;;;;23.63;7.90;;;;;;;;;;10518707;28;20436;-70
2023/09/30 05:48:46;;;;;;;24.00;7.37;;;;;;;;;;10522345;28;20462;-71
2023/09/30 05:53:49;;;;;;;22.90;6.90;;;;;;;;;;10518562;28;20478;-72
2023/09/30 05:58:54;;;;;;;22.35;7.60;;;;;;;;;;10520349;28;20983;-71
2023/09/30 06:03:57;;;;;;;23.77;7.55;;;;;;;;;;10522834;28;20473;-71
2023/09/30 06:09:00;;;;;;;23.90;6.97;;;;;;;;;;10520661;28;20477;-71
2023/09/30 06:14:06;;;;;;;21.02;6.88;;;;;;;;;;10523644;28;20502;-71
2023/09/30 06:19:13;;;;;;;19.10;6.32;;;;;;;;;;10519427;28;20954;-72
2023/09/30 06:24:16;;;;;;;20.27;6.55;;;;;;;;;;10515627;28;20543;-72
2023/09/30 06:29:20;;;;;;;20.30;6.57;;;;;;;;;;10511549;28;20422;-73
2023/09/30 06:34:23;;;;;;;20.10;6.43;;;;;;;;;;10515507;28;20557;-71
2023/09/30 06:39:26;;;;;;;19.23;6.07;;;;;;;;;;10517228;28;20469;-72
2023/09/30 06:44:31;;;;;;;20.73;6.25;;;;;;;;;;10518873;28;20446;-70
2023/09/30 06:49:34;;;;;;;17.70;5.47;;;;;;;;;;10518771;28;20964;-70
2023/09/30 06:54:37;;;;;;;19.95;5.57;;;;;;;;;;10513570;28;20810;-70
2023/09/30 06:59:41;;;;;;;16.30;5.13;;;;;;;;;;10521972;28;21057;-70
2023/09/30 07:04:44;;;;;;;14.98;5.13;;;;;;;;;;10513491;28;20872;-70
2023/09/30 07:09:46;;;;;;;13.80;4.80;;;;;;;;;;10528170;28;20898;-70
2023/09/30 07:14:50;;;;;;;11.98;4.30;;;;;;;;;;10526105;28;20430;-72
2023/09/30 07:19:53;;;;;;;12.70;4.57;;;;;;;;;;10524778;28;20414;-72
2023/09/30 07:24:56;;;;;;;12.90;4.28;;;;;;;;;;10522581;28;20932;-72
2023/09/30 07:30:00;;;;;;;9.13;3.83;;;;;;;;;;10531344;28;20598;-71
2023/09/30 07:35:08;;;;;;;13.40;4.45;;;;;;;;;;10531097;28;20899;-71
2023/09/30 07:40:11;;;;;;;11.90;4.10;;;;;;;;;;10523141;28;20422;-70
2023/09/30 07:45:16;;;;;;;11.35;4.47;;;;;;;;;;10508886;28;20418;-70
2023/09/30 07:50:19;;;;;;;10.55;4.30;;;;;;;;;;10523370;28;20992;-71
2023/09/30 07:55:22;;;;;;;13.57;4.75;;;;;;;;;;10525912;28;20832;-71
2023/09/30 08:00:26;;;;;;;13.00;5.00;;;;;;;;;;10526574;28;20843;-73
2023/09/30 08:05:29;;;;;;;14.23;5.03;;;;;;;;;;10525027;28;20422;-71
2023/09/30 08:10:32;;;;;;;14.05;4.63;;;;;;;;;;10523658;28;20456;-70
2023/09/30 08:15:36;;;;;;;13.93;5.00;;;;;;;;;;10522477;28;20519;-71
2023/09/30 08:20:40;;;;;;;14.07;4.88;;;;;;;;;;10523689;28;20425;-72
2023/09/30 08:25:42;;;;;;;13.82;5.35;;;;;;;;;;10521836;28;20432;-70
2023/09/30 08:30:46;;;;;;;14.50;5.13;;;;;;;;;;10502518;28;20938;-71
2023/09/30 08:35:51;;;;;;;12.65;4.97;;;;;;;;;;10518120;28;20628;-70
2023/09/30 08:40:55;;;;;;;13.98;5.18;;;;;;;;;;10524283;28;20460;-71
2023/09/30 08:46:00;;;;;;;12.23;4.85;;;;;;;;;;10517741;28;20433;-73
2023/09/30 08:51:03;;;;;;;15.43;5.80;;;;;;;;;;10517187;28;20525;-69
2023/09/30 08:56:09;;;;;;;13.60;4.87;;;;;;;;;;10523247;28;20456;-71
2023/09/30 09:01:14;;;;;;;15.32;5.10;;;;;;;;;;10523394;28;20433;-70
2023/09/30 09:06:17;;;;;;;13.07;5.00;;;;;;;;;;10515646;28;21726;-70
2023/09/30 09:11:20;;;;;;;12.43;5.20;;;;;;;;;;10519389;28;20423;-70
2023/09/30 09:16:24;;;;;;;12.27;5.40;;;;;;;;;;10519861;28;20520;-71
2023/09/30 09:21:28;;;;;;;11.38;5.00;;;;;;;;;;10523305;28;20493;-72
2023/09/30 09:26:31;;;;;;;13.57;5.73;;;;;;;;;;10521102;28;20441;-71
2023/09/30 09:31:39;;;;;;;14.20;5.40;;;;;;;;;;10514246;28;20433;-69
2023/09/30 09:36:45;;;;;;;13.43;4.95;;;;;;;;;;10518004;28;20430;-75
2023/09/30 09:41:52;;;;;;;11.80;4.60;;;;;;;;;;10514011;28;20746;-72
2023/09/30 09:47:01;;;;;;;11.43;5.00;;;;;;;;;;10505901;28;20465;-73
2023/09/30 09:52:04;;;;;;;12.32;4.65;;;;;;;;;;10513351;28;20627;-72
2023/09/30 09:57:10;;;;;;;12.55;5.00;;;;;;;;;;10521895;28;20464;-72
2023/09/30 10:02:15;;;;;;;12.45;5.28;;;;;;;;;;10511900;28;20421;-72
2023/09/30 10:07:25;;;;;;;10.98;5.03;;;;;;;;;;10520942;28;20418;-73
2023/09/30 10:12:33;;;;;;;12.13;4.63;;;;;;;;;;10518421;28;20443;-70
2023/09/30 10:17:50;;;;;;;11.57;5.00;;;;;;;;;;10518252;28;20472;-70
2023/09/30 10:23:08;;;;;;;13.02;4.80;;;;;;;;;;10505417;28;20430;-71
2023/09/30 10:28:29;;;;;;;8.45;3.92;;;;;;;;;;10515037;28;20513;-70
2023/09/30 10:33:33;;;;;;;7.53;3.60;;;;;;;;;;10514827;28;20825;-69
2023/09/30 10:38:43;;;;;;;7.97;3.67;;;;;;;;;;10519607;28;20418;-70
2023/09/30 10:43:45;;;;;;;8.85;3.72;;;;;;;;;;10509602;28;20422;-71
2023/09/30 10:48:49;;;;;;;8.98;3.55;;;;;;;;;;10528259;28;20835;-72
2023/09/30 10:53:56;;;;;;;8.10;3.67;;;;;;;;;;10522950;28;20841;-71
2023/09/30 10:58:59;;;;;;;7.63;3.43;;;;;;;;;;10526414;28;20430;-71
2023/09/30 11:04:05;;;;;;;9.87;3.67;;;;;;;;;;10523869;28;20534;-70
2023/09/30 11:09:16;;;;;;;9.67;3.50;;;;;;;;;;10523431;28;20457;-70
2023/09/30 11:14:20;;;;;;;7.30;3.03;;;;;;;;;;10524567;28;20513;-70
2023/09/30 11:19:24;;;;;;;7.78;3.70;;;;;;;;;;10525359;28;21090;-71
2023/09/30 11:24:28;;;;;;;8.03;3.73;;;;;;;;;;10523771;28;20433;-71
2023/09/30 11:29:31;;;;;;;11.73;5.40;;;;;;;;;;10525226;28;20442;-71
2023/09/30 11:34:35;;;;;;;10.73;4.75;;;;;;;;;;10523936;28;20886;-71
2023/09/30 11:39:43;;;;;;;13.53;5.87;;;;;;;;;;10519776;28;20425;-70
2023/09/30 11:44:48;;;;;;;13.50;7.00;;;;;;;;;;10513914;28;20520;-72
2023/09/30 11:49:55;;;;;;;21.05;12.27;;;;;;;;;;10519198;28;20422;-71
2023/09/30 11:55:00;;;;;;;12.63;5.30;;;;;;;;;;10521695;28;20770;-72
2023/09/30 12:00:13;;;;;;;11.80;4.50;;;;;;;;;;10522655;28;20417;-72
2023/09/30 12:05:17;;;;;;;15.17;5.80;;;;;;;;;;10523119;28;20410;-72
2023/09/30 12:10:19;;;;;;;12.57;4.95;;;;;;;;;;10520420;28;20418;-71
2023/09/30 12:15:26;;;;;;;14.35;5.60;;;;;;;;;;10518208;28;20475;-71
2023/09/30 12:20:34;;;;;;;14.23;5.93;;;;;;;;;;10516293;28;20434;-72
2023/09/30 12:25:37;;;;;;;14.05;6.00;;;;;;;;;;10523474;28;20880;-71
2023/09/30 12:30:40;;;;;;;13.50;5.75;;;;;;;;;;10527567;28;20947;-73
2023/09/30 12:35:44;;;;;;;15.27;6.78;;;;;;;;;;10517754;28;20425;-72
2023/09/30 12:40:48;;;;;;;18.30;6.80;;;;;;;;;;10521979;28;20820;-71
2023/09/30 12:45:56;;;;;;;16.90;6.50;;;;;;;;;;10521315;28;20511;-73
2023/09/30 12:51:04;;;;;;;15.77;6.55;;;;;;;;;;10520507;28;20501;-72
2023/09/30 12:56:10;;;;;;;18.60;6.77;;;;;;;;;;10522301;28;20465;-72
2023/09/30 13:01:14;;;;;;;18.13;7.30;;;;;;;;;;10512583;28;21248;-71
2023/09/30 13:06:26;;;;;;;16.15;7.30;;;;;;;;;;10516364;28;20487;-72
2023/09/30 13:11:43;;;;;;;13.60;5.75;;;;;;;;;;10517573;28;20898;-72
2023/09/30 13:16:46;;;;;;;14.55;5.40;;;;;;;;;;10514305;28;20536;-72
2023/09/30 13:21:57;;;;;;;14.83;5.53;;;;;;;;;;10511859;28;20417;-72
2023/09/30 13:27:01;;;;;;;14.60;5.67;;;;;;;;;;10514279;28;20425;-72
2023/09/30 13:32:05;;;;;;;14.45;5.65;;;;;;;;;;10507395;28;20918;-74
2023/09/30 13:37:09;;;;;;;15.07;5.73;;;;;;;;;;10518877;28;20502;-73
2023/09/30 13:42:12;;;;;;;15.45;5.78;;;;;;;;;;10519198;28;20428;-73
2023/09/30 13:47:15;;;;;;;15.82;6.00;;;;;;;;;;10526586;28;20421;-72
2023/09/30 13:52:19;;;;;;;15.97;5.47;;;;;;;;;;10523471;28;20998;-71
2023/09/30 13:57:23;;;;;;;14.65;5.40;;;;;;;;;;10525643;28;20936;-73
2023/09/30 14:02:26;;;;;;;17.17;5.63;;;;;;;;;;10521821;28;20489;-72
2023/09/30 14:07:31;;;;;;;18.07;6.70;;;;;;;;;;10528816;28;20486;-73
2023/09/30 14:12:34;;;;;;;15.68;6.00;;;;;;;;;;10524702;28;20524;-73
2023/09/30 14:17:37;;;;;;;14.87;5.60;;;;;;;;;;10527830;28;20836;-73
2023/09/30 14:22:41;;;;;;;15.45;5.60;;;;;;;;;;10527051;28;20855;-74
2023/09/30 14:27:44;;;;;;;13.30;5.20;;;;;;;;;;10530387;28;20421;-72
2023/09/30 14:32:46;;;;;;;14.30;5.85;;;;;;;;;;10527906;28;20438;-72
2023/09/30 14:37:54;;;;;;;16.35;5.82;;;;;;;;;;10526181;28;21114;-73
2023/09/30 14:42:56;;;;;;;15.23;5.53;;;;;;;;;;10532925;28;20957;-71
2023/09/30 14:47:59;;;;;;;15.60;5.97;;;;;;;;;;10528893;28;20922;-72
2023/09/30 14:53:04;;;;;;;13.07;5.13;;;;;;;;;;10531293;28;20428;-73
2023/09/30 14:58:07;;;;;;;16.38;5.97;;;;;;;;;;10531344;28;20429;-74
2023/09/30 15:03:10;;;;;;;15.93;5.82;;;;;;;;;;10529083;28;21071;-71
2023/09/30 15:08:15;;;;;;;16.33;6.05;;;;;;;;;;10531461;28;20852;-72
2023/09/30 15:13:18;;;;;;;15.20;5.45;;;;;;;;;;10505503;28;20426;-73
2023/09/30 15:18:21;;;;;;;15.63;5.80;;;;;;;;;;10522644;28;20467;-73
2023/09/30 15:23:24;;;;;;;15.27;5.70;;;;;;;;;;10525379;28;20456;-74
2023/09/30 15:28:27;;;;;;;16.52;6.03;;;;;;;;;;10524772;28;20461;-73
2023/09/30 15:33:30;;;;;;;19.00;7.00;;;;;;;;;;10530603;28;20450;-73
2023/09/30 15:38:45;;;;;;;18.88;6.25;;;;;;;;;;10523955;28;20429;-73
2023/09/30 15:43:48;;;;;;;16.95;6.03;;;;;;;;;;10527126;28;20443;-73
2023/09/30 15:48:51;;;;;;;17.25;6.00;;;;;;;;;;10526135;28;20463;-72
2023/09/30 15:53:55;;;;;;;16.83;5.90;;;;;;;;;;10524726;28;20975;-72
2023/09/30 15:58:58;;;;;;;16.10;5.72;;;;;;;;;;10528013;28;20778;-72
2023/09/30 16:04:01;;;;;;;19.67;6.30;;;;;;;;;;10525718;28;20968;-73
2023/09/30 16:09:06;;;;;;;17.00;5.97;;;;;;;;;;10520544;28;20453;-73
2023/09/30 16:14:08;;;;;;;16.65;6.15;;;;;;;;;;10526363;28;20818;-76
2023/09/30 16:19:11;;;;;;;16.83;5.97;;;;;;;;;;10524272;28;20455;-72
2023/09/30 16:24:15;;;;;;;17.27;5.93;;;;;;;;;;10525088;28;20426;-74
2023/09/30 16:29:17;;;;;;;18.13;6.20;;;;;;;;;;10523173;28;20425;-72
2023/09/30 16:34:20;;;;;;;17.02;5.82;;;;;;;;;;10523482;28;20437;-72
2023/09/30 16:39:24;;;;;;;19.80;6.20;;;;;;;;;;10519284;28;20965;-72
2023/09/30 16:44:27;;;;;;;17.92;6.40;;;;;;;;;;10522550;28;20526;-71
2023/09/30 16:49:30;;;;;;;16.95;5.75;;;;;;;;;;10516622;28;20464;-72
2023/09/30 16:54:34;;;;;;;16.23;5.73;;;;;;;;;;10515589;28;20511;-72
2023/09/30 16:59:36;;;;;;;17.70;6.30;;;;;;;;;;10520114;28;20843;-72
2023/09/30 17:04:42;;;;;;;16.80;6.35;;;;;;;;;;10520048;28;20511;-72
2023/09/30 17:09:46;;;;;;;19.52;6.70;;;;;;;;;;10501494;28;20421;-73
2023/09/30 17:14:49;;;;;;;18.20;6.72;;;;;;;;;;10521479;28;21472;-73
2023/09/30 17:19:51;;;;;;;18.93;6.33;;;;;;;;;;10522857;28;20505;-72
2023/09/30 17:24:56;;;;;;;17.10;5.97;;;;;;;;;;10520615;28;20418;-73
2023/09/30 17:29:59;;;;;;;16.95;5.95;;;;;;;;;;10524475;28;20422;-76
2023/09/30 17:35:03;;;;;;;18.02;5.93;;;;;;;;;;10522633;28;20434;-76
2023/09/30 17:40:08;;;;;;;19.40;6.90;;;;;;;;;;10520007;28;20480;-72
2023/09/30 17:45:12;;;;;;;18.65;6.30;;;;;;;;;;10523690;28;20454;-73
2023/09/30 17:50:15;;;;;;;19.27;6.65;;;;;;;;;;10521108;28;20425;-74
2023/09/30 17:55:19;;;;;;;18.67;6.47;;;;;;;;;;10518915;28;20490;-73
2023/09/30 18:00:21;;;;;;;18.75;6.47;;;;;;;;;;10527673;28;20881;-73
2023/09/30 18:05:25;;;;;;;20.37;6.43;;;;;;;;;;10524421;28;21235;-72
2023/09/30 18:10:30;;;;;;;20.35;6.50;;;;;;;;;;10520199;28;20522;-71
2023/09/30 18:15:32;;;;;;;18.80;6.17;;;;;;;;;;10520322;28;20561;-71
2023/09/30 18:20:35;;;;;;;20.08;6.93;;;;;;;;;;10522997;28;20422;-72
2023/09/30 18:25:41;;;;;;;20.67;6.73;;;;;;;;;;10522883;28;20520;-75
2023/09/30 18:30:44;;;;;;;17.25;6.43;;;;;;;;;;10522047;28;20804;-72
2023/09/30 18:35:47;;;;;;;23.43;7.20;;;;;;;;;;10520779;28;20569;-72
2023/09/30 18:40:52;;;;;;;23.10;7.30;;;;;;;;;;10524971;28;20832;-72
2023/09/30 18:45:55;;;;;;;20.00;6.90;;;;;;;;;;10518286;28;20458;-72
2023/09/30 18:50:58;;;;;;;19.45;7.18;;;;;;;;;;10521755;28;20865;-73
2023/09/30 18:56:03;;;;;;;21.80;7.38;;;;;;;;;;10520788;28;20951;-72
2023/09/30 19:01:06;;;;;;;18.08;7.03;;;;;;;;;;10526787;28;20539;-72
2023/09/30 19:06:08;;;;;;;22.95;7.50;;;;;;;;;;10530497;28;20462;-72
2023/09/30 19:11:12;;;;;;;21.40;7.50;;;;;;;;;;10531610;28;20930;-73
2023/09/30 19:16:15;;;;;;;18.35;7.35;;;;;;;;;;10530061;28;20557;-72
2023/09/30 19:21:18;;;;;;;19.27;6.47;;;;;;;;;;10527808;28;20523;-73
2023/09/30 19:26:24;;;;;;;19.17;6.57;;;;;;;;;;10527557;28;20418;-74
2023/09/30 19:31:27;;;;;;;18.77;6.53;;;;;;;;;;10527422;28;20459;-72
2023/09/30 19:36:30;;;;;;;17.17;6.38;;;;;;;;;;10526886;28;20485;-74
2023/09/30 19:41:39;;;;;;;20.83;6.95;;;;;;;;;;10526657;28;20509;-75
2023/09/30 19:46:42;;;;;;;19.27;6.57;;;;;;;;;;10528635;28;20410;-72
2023/09/30 19:51:45;;;;;;;19.33;6.63;;;;;;;;;;10529321;28;20565;-72
2023/09/30 19:56:50;;;;;;;18.27;6.38;;;;;;;;;;10526188;28;20421;-73
2023/09/30 20:01:53;;;;;;;16.60;6.20;;;;;;;;;;10528854;28;20445;-74
2023/09/30 20:06:56;;;;;;;17.58;6.43;;;;;;;;;;10529236;28;20426;-75
2023/09/30 20:12:02;;;;;;;20.38;6.90;;;;;;;;;;10527364;28;20421;-74
2023/09/30 20:17:05;;;;;;;18.55;6.55;;;;;;;;;;10526847;28;20464;-71
2023/09/30 20:22:08;;;;;;;19.00;6.95;;;;;;;;;;10525930;28;20426;-73
2023/09/30 20:27:12;;;;;;;17.80;6.63;;;;;;;;;;10524589;28;20426;-72
2023/09/30 20:32:15;;;;;;;18.52;6.47;;;;;;;;;;10528037;28;20465;-72
2023/09/30 20:37:17;;;;;;;16.67;6.82;;;;;;;;;;10526896;28;20421;-72
2023/09/30 20:42:22;;;;;;;18.97;6.57;;;;;;;;;;10525530;28;20514;-73
2023/09/30 20:47:24;;;;;;;19.20;7.37;;;;;;;;;;10526017;28;20528;-74
2023/09/30 20:52:27;;;;;;;18.88;7.07;;;;;;;;;;10523477;28;20802;-74
2023/09/30 20:57:31;;;;;;;18.17;6.90;;;;;;;;;;10527776;28;20444;-71
2023/09/30 21:02:34;;;;;;;20.23;6.50;;;;;;;;;;10527284;28;20917;-75
2023/09/30 21:07:37;;;;;;;18.90;7.13;;;;;;;;;;10521949;28;20929;-73
2023/09/30 21:12:41;;;;;;;20.63;7.22;;;;;;;;;;10522986;28;20918;-72
2023/09/30 21:17:44;;;;;;;19.17;6.78;;;;;;;;;;10524057;28;20775;-72
2023/09/30 21:22:47;;;;;;;19.20;6.72;;;;;;;;;;10522080;28;20449;-72
2023/09/30 21:27:51;;;;;;;17.83;6.50;;;;;;;;;;10521256;28;20429;-73
2023/09/30 21:32:54;;;;;;;20.02;6.95;;;;;;;;;;10521763;28;20431;-71
2023/09/30 21:37:57;;;;;;;20.05;6.90;;;;;;;;;;10518298;28;20882;-72
2023/09/30 21:43:01;;;;;;;19.27;6.80;;;;;;;;;;10520569;28;20468;-72
2023/09/30 21:48:04;;;;;;;21.80;7.05;;;;;;;;;;10518989;28;20430;-71
2023/09/30 21:53:07;;;;;;;19.93;7.33;;;;;;;;;;10517430;28;20581;-71
2023/09/30 21:58:11;;;;;;;17.80;7.17;;;;;;;;;;10517774;28;20434;-73
2023/09/30 22:03:17;;;;;;;22.10;7.68;;;;;;;;;;10519808;28;20436;-74
2023/09/30 22:08:20;;;;;;;21.52;7.32;;;;;;;;;;10501911;28;20503;-72
2023/09/30 22:13:26;;;;;;;19.48;7.53;;;;;;;;;;10522902;28;20422;-72
2023/09/30 22:18:28;;;;;;;20.98;7.60;;;;;;;;;;10518752;28;20438;-73
2023/09/30 22:23:31;;;;;;;19.30;7.55;;;;;;;;;;10516912;28;20458;-73
2023/09/30 22:28:35;;;;;;;18.93;7.30;;;;;;;;;;10522003;28;20425;-71
2023/09/30 22:33:38;;;;;;;20.30;7.85;;;;;;;;;;10513637;28;20516;-71
2023/09/30 22:38:41;;;;;;;19.17;7.90;;;;;;;;;;10531456;28;20491;-73
2023/09/30 22:43:45;;;;;;;20.52;7.38;;;;;;;;;;10530798;28;20444;-71
2023/09/30 22:48:48;;;;;;;19.53;7.13;;;;;;;;;;10532855;28;20429;-72
2023/09/30 22:53:50;;;;;;;22.10;7.72;;;;;;;;;;10530731;28;20525;-73
2023/09/30 22:58:54;;;;;;;18.92;7.65;;;;;;;;;;10526906;28;20428;-72
2023/09/30 23:03:58;;;;;;;20.50;7.50;;;;;;;;;;10531799;28;20429;-71
2023/09/30 23:09:04;;;;;;;21.88;8.50;;;;;;;;;;10528016;28;20518;-72
2023/09/30 23:14:08;;;;;;;21.25;8.13;;;;;;;;;;10525490;28;20444;-71
2023/09/30 23:19:11;;;;;;;20.53;8.00;;;;;;;;;;10533404;28;20512;-70
2023/09/30 23:24:15;;;;;;;21.37;8.07;;;;;;;;;;10528556;28;20550;-72
2023/09/30 23:29:19;;;;;;;21.08;7.50;;;;;;;;;;10526807;28;21172;-71
2023/09/30 23:34:21;;;;;;;20.90;7.65;;;;;;;;;;10519676;28;20429;-71
2023/09/30 23:39:25;;;;;;;20.55;7.70;;;;;;;;;;10523287;28;20977;-70
2023/09/30 23:44:30;;;;;;;21.88;8.02;;;;;;;;;;10521290;28;20917;-71
2023/09/30 23:49:33;;;;;;;20.30;8.20;;;;;;;;;;10518469;28;20847;-69
2023/09/30 23:54:36;;;;;;;22.67;8.60;;;;;;;;;;10519798;28;20517;-70
2023/09/30 23:59:40;;;;;;;23.75;8.30;;;;;;;;;;10527793;28;21112;-71
